Terminal Aerodrome Forecast
Issued by NWS Memphis, TN

Home | Current Version | Previous Version | Text Only | Print | Product List | Glossary On
Versions: 1 2 3 4 5 6 7 8 9 10 11 12 13 14 15 16 17 18 19 20 21 22 23 24 25 26 27 28 29 30 31 32 33
000
FTUS44 KMEG 020524
TAFMEM
TAF
KMEM 020524Z 0206/0306 17011KT P6SM VCTS BKN060CB
     FM020900 19012KT P6SM SCT060 BKN250
     FM021400 21015G22KT P6SM SCT020 BKN035
     FM021800 20015G23KT P6SM OVC050
      TEMPO 0218/0221 -RA OVC025
     FM030000 21012KT P6SM OVC050=

USA.gov is the U.S. government's official web portal to all federal, state and local government web resources and services.